Terminal Aerodrome Forecast
Issued by NWS Melbourne, FL

Home | Current Version | Previous Version | Text Only | Print | Product List | Glossary On
Versions: 1 2 3 4 5 6 7 8 9 10 11 12 13 14 15 16 17 18 19 20 21 22 23 24 25
000
FTUS42 KMLB 221100
TAFMCO
TAF
KMCO 221127Z 2212/2312 12005KT P6SM FEW005 SCT080 BKN250
     FM221600 17009KT P6SM VCSH SCT020 BKN050 BKN100
     FM230600 17005KT 6SM BR SCT004 OVC010=

USA.gov is the U.S. government's official web portal to all federal, state and local government web resources and services.